Time;durP1;ratioP1;P1;durP2;ratioP2;P2;SDS_P1;SDS_P2;PMS_P1;PMS_P2;Temp;Humidity;BMP_temperature;BMP_pressure;BME280_temperature;BME280_humidity;BME280_pressure;Samples;Min_cycle;Max_cycle;Signal;HPM_P1;HPM_P2
2021/11/29 00:00:23;;;;;;;5.57;2.67;;;;;;;8.82;52.60;100343.00;4157841;28;20113;-54
2021/11/29 00:02:26;;;;;;;7.60;2.92;;;;;;;8.82;52.39;100339.53;4157683;28;20112;-51
2021/11/29 00:04:28;;;;;;;5.95;2.83;;;;;;;8.82;52.58;100340.38;4157720;28;20326;-52
2021/11/29 00:06:31;;;;;;;5.78;2.72;;;;;;;8.81;52.67;100337.81;4157462;28;20113;-51
2021/11/29 00:08:33;;;;;;;6.65;2.83;;;;;;;8.81;52.69;100338.69;4157648;28;20066;-49
2021/11/29 00:10:36;;;;;;;7.10;3.00;;;;;;;8.80;52.66;100339.59;4157596;28;20409;-52
2021/11/29 00:12:39;;;;;;;7.25;3.22;;;;;;;8.79;52.66;100337.88;4157529;28;20172;-50
2021/11/29 00:14:41;;;;;;;6.65;2.92;;;;;;;8.63;52.45;100311.34;4157476;28;20072;-51
2021/11/29 00:16:43;;;;;;;7.38;2.88;;;;;;;8.79;52.57;100341.34;4157500;28;20114;-51
2021/11/29 00:18:45;;;;;;;8.30;3.42;;;;;;;8.78;52.34;100338.78;4157594;28;20072;-51
2021/11/29 00:20:48;;;;;;;6.95;3.20;;;;;;;8.75;52.55;100339.75;4157503;28;20532;-51
2021/11/29 00:22:50;;;;;;;7.10;3.38;;;;;;;8.78;52.38;100336.16;4157306;28;20105;-51
2021/11/29 00:24:52;;;;;;;8.32;2.92;;;;;;;8.79;52.45;100351.84;4157391;28;20103;-51
2021/11/29 00:26:54;;;;;;;;;;;;;;;8.78;52.61;100355.41;4157518;28;20108;-52
2021/11/29 00:28:56;;;;;;;5.90;2.85;;;;;;;8.77;52.31;100355.44;4157240;28;20042;-50
2021/11/29 00:30:58;;;;;;;;;;;;;;;8.78;52.58;100351.91;4157748;28;20109;-47
2021/11/29 00:33:00;;;;;;;6.25;2.80;;;;;;;8.76;52.40;100354.59;4157103;28;19999;-49
2021/11/29 00:35:03;;;;;;;6.63;3.15;;;;;;;8.73;52.42;100353.81;4157398;28;20250;-50
2021/11/29 00:37:05;;;;;;;5.88;3.05;;;;;;;8.67;52.54;100344.41;4157099;28;20404;-51
2021/11/29 00:39:07;;;;;;;;;;;;;;;8.76;52.67;100359.81;4157747;28;20065;-47
2021/11/29 00:41:09;;;;;;;6.50;2.92;;;;;;;8.76;52.38;100364.19;4157065;28;19980;-52
2021/11/29 00:43:11;;;;;;;6.82;3.05;;;;;;;8.74;52.65;100360.78;4156961;28;20052;-48
2021/11/29 00:45:14;;;;;;;6.28;3.17;;;;;;;8.70;52.42;100354.78;4157143;28;20384;-49
2021/11/29 00:47:16;;;;;;;8.35;3.55;;;;;;;8.75;52.40;100363.34;4157043;28;20057;-49
2021/11/29 00:49:18;;;;;;;;;;;;;;;8.75;52.38;100367.75;4157443;28;20124;-51
2021/11/29 00:51:20;;;;;;;6.93;3.10;;;;;;;8.74;52.30;100369.50;4157110;28;19921;-50
2021/11/29 00:53:22;;;;;;;8.15;2.85;;;;;;;8.72;52.51;100365.22;4156639;28;20245;-51
2021/11/29 00:55:24;;;;;;;8.40;3.25;;;;;;;8.54;52.40;100338.72;4157024;28;20050;-51
2021/11/29 00:57:26;;;;;;;6.38;3.08;;;;;;;8.71;52.68;100381.84;4156709;28;20065;-50
2021/11/29 00:59:28;;;;;;;7.20;2.90;;;;;;;8.74;52.45;100382.59;4156947;28;20050;-52
2021/11/29 01:01:31;;;;;;;6.38;3.10;;;;;;;8.73;52.33;100394.00;4157066;28;20050;-52
2021/11/29 01:03:35;;;;;;;6.20;2.97;;;;;;;8.73;52.61;100386.13;4156572;28;20108;-51
2021/11/29 01:05:37;;;;;;;5.93;2.90;;;;;;;8.74;52.42;100394.88;4156890;28;20211;-50
2021/11/29 01:07:40;;;;;;;7.30;3.25;;;;;;;8.73;52.42;100391.38;4156701;28;20129;-49
2021/11/29 01:09:43;;;;;;;7.30;3.33;;;;;;;8.68;52.64;100380.19;4156731;28;20059;-49
2021/11/29 01:11:45;;;;;;;5.80;2.97;;;;;;;8.73;52.58;100390.53;4156662;28;20109;-49
2021/11/29 01:13:47;;;;;;;5.57;3.00;;;;;;;8.71;52.34;100394.97;4156635;28;20049;-52
2021/11/29 01:15:49;;;;;;;6.63;3.58;;;;;;;8.72;52.35;100397.53;4156448;28;20117;-50
2021/11/29 01:17:51;;;;;;;7.05;3.30;;;;;;;8.67;52.53;100393.38;4156329;28;20049;-52
2021/11/29 01:19:54;;;;;;;6.15;2.95;;;;;;;8.58;52.62;100382.25;4156415;28;20225;-51
2021/11/29 01:21:56;;;;;;;7.28;3.20;;;;;;;8.42;52.54;100353.06;4156701;28;20101;-48
2021/11/29 01:23:58;;;;;;;7.03;3.10;;;;;;;8.72;52.21;100408.00;4156409;28;20046;-48
2021/11/29 01:26:01;;;;;;;6.60;2.95;;;;;;;8.71;52.31;100408.94;4156584;28;20243;-51
2021/11/29 01:28:05;;;;;;;6.55;3.10;;;;;;;8.71;52.47;100411.56;4156196;28;20109;-52
2021/11/29 01:30:09;;;;;;;8.57;3.30;;;;;;;8.71;52.49;100406.31;4156238;28;20086;-51
2021/11/29 01:32:11;;;;;;;6.57;3.30;;;;;;;8.71;52.63;100415.94;4156601;28;20096;-49
2021/11/29 01:34:13;;;;;;;6.82;3.22;;;;;;;8.61;52.63;100405.75;4156266;28;20107;-51
2021/11/29 01:36:15;;;;;;;6.78;3.17;;;;;;;8.70;52.50;100417.72;4155705;28;20101;-51
2021/11/29 01:38:18;;;;;;;7.68;3.55;;;;;;;8.55;52.40;100395.47;4156579;28;20084;-49
2021/11/29 01:40:20;;;;;;;;;;;;;;;8.70;52.42;100419.47;4156573;28;20050;-52
2021/11/29 01:42:22;;;;;;;9.95;3.83;;;;;;;8.61;52.46;100404.91;4156200;28;19988;-51
2021/11/29 01:44:24;;;;;;;5.95;3.03;;;;;;;8.69;52.59;100425.59;4156145;28;20069;-51
2021/11/29 01:46:26;;;;;;;;;;;;;;;8.69;52.35;100426.47;4156695;28;20314;-52
2021/11/29 01:48:29;;;;;;;7.28;3.28;;;;;;;8.66;52.54;100418.69;4155944;28;20239;-51
2021/11/29 01:50:31;;;;;;;7.95;3.22;;;;;;;8.62;52.34;100417.09;4156208;28;20057;-50
2021/11/29 01:52:38;;;;;;;7.45;3.47;;;;;;;8.64;52.55;100420.53;4156131;28;20387;-52
2021/11/29 01:54:41;;;;;;;8.65;3.42;;;;;;;8.67;52.43;100430.91;4155984;28;20046;-50
2021/11/29 01:56:45;;;;;;;7.25;3.53;;;;;;;8.59;52.54;100414.56;4155925;28;20054;-49
2021/11/29 01:58:47;;;;;;;7.20;3.45;;;;;;;8.65;52.39;100427.47;4156023;28;20278;-51
2021/11/29 02:00:53;;;;;;;7.93;3.22;;;;;;;8.68;52.41;100430.00;4156009;28;20049;-51
2021/11/29 02:02:56;;;;;;;7.20;3.10;;;;;;;8.64;52.89;100431.03;4155942;28;20109;-51
2021/11/29 02:04:59;;;;;;;7.97;3.30;;;;;;;8.67;52.51;100438.78;4155632;28;20109;-52
2021/11/29 02:07:01;;;;;;;7.97;3.60;;;;;;;8.67;52.19;100430.91;4155847;28;20105;-52
2021/11/29 02:09:05;;;;;;;7.53;3.22;;;;;;;8.61;52.46;100425.88;4155810;28;20112;-52
2021/11/29 02:11:07;;;;;;;7.78;3.38;;;;;;;8.65;52.42;100429.25;4155924;28;20077;-51
2021/11/29 02:13:10;;;;;;;;;;;;;;;8.67;52.48;100435.31;4156226;28;20117;-50
2021/11/29 02:15:14;;;;;;;6.63;3.22;;;;;;;8.59;52.36;100430.28;4155544;28;19953;-50
2021/11/29 02:17:17;;;;;;;7.72;3.10;;;;;;;8.66;52.31;100442.28;4155906;28;20052;-50
2021/11/29 02:19:20;;;;;;;6.43;2.90;;;;;;;8.67;52.52;100445.78;4155895;28;20073;-47
2021/11/29 02:21:24;;;;;;;6.13;2.80;;;;;;;8.65;52.37;100451.06;4155264;28;20049;-48
2021/11/29 02:23:27;;;;;;;6.25;3.03;;;;;;;8.57;52.38;100435.59;4155808;28;20269;-49
2021/11/29 02:25:29;;;;;;;;;;;;;;;8.65;52.54;100448.44;4155931;28;20108;-48
2021/11/29 02:27:31;;;;;;;6.32;3.28;;;;;;;8.64;52.35;100452.00;4155700;28;19963;-50
2021/11/29 02:29:35;;;;;;;7.43;3.33;;;;;;;8.62;52.54;100449.41;4155692;28;20053;-49
2021/11/29 02:31:44;;;;;;;8.02;3.58;;;;;;;8.61;52.52;100447.69;4155461;28;20365;-51
2021/11/29 02:33:46;;;;;;;7.20;3.20;;;;;;;8.63;52.33;100452.91;4155737;28;20311;-52
2021/11/29 02:35:48;;;;;;;6.80;3.17;;;;;;;8.63;52.47;100460.75;4155281;28;20045;-49
2021/11/29 02:37:52;;;;;;;7.90;3.35;;;;;;;8.63;52.39;100445.03;4155586;28;20050;-51
2021/11/29 02:39:54;;;;;;;5.55;2.70;;;;;;;8.63;52.46;100459.00;4155536;28;20053;-51
2021/11/29 02:41:57;;;;;;;;;;;;;;;8.63;52.25;100460.75;4155795;28;20065;-50
2021/11/29 02:44:00;;;;;;;6.25;2.83;;;;;;;8.61;52.48;100455.53;4155273;28;19979;-50
2021/11/29 02:46:02;;;;;;;;;;;;;;;8.61;52.57;100463.41;4155775;28;20247;-52
2021/11/29 02:48:05;;;;;;;6.30;2.83;;;;;;;8.55;52.54;100465.38;4154466;28;19967;-53
2021/11/29 02:50:07;;;;;;;8.05;3.13;;;;;;;8.52;52.41;100461.09;4154409;28;20238;-52
2021/11/29 02:52:12;;;;;;;6.65;3.00;;;;;;;8.42;52.25;100443.91;4155214;28;20068;-53
2021/11/29 02:54:23;;;;;;;8.90;3.13;;;;;;;8.61;52.36;100476.50;4155353;28;20352;-52
2021/11/29 02:56:26;;;;;;;7.13;2.95;;;;;;;8.60;52.25;100469.59;4155038;28;20046;-51
2021/11/29 02:58:28;;;;;;;7.00;3.00;;;;;;;8.52;52.49;100463.72;4155290;28;20101;-50
2021/11/29 03:00:30;;;;;;;6.20;2.92;;;;;;;8.60;52.42;100484.44;4155521;28;20277;-51
2021/11/29 03:02:32;;;;;;;7.97;3.15;;;;;;;8.59;52.48;100483.59;4155056;28;20092;-51
2021/11/29 03:04:36;;;;;;;6.63;3.00;;;;;;;8.54;52.21;100480.25;4155417;28;20215;-52
2021/11/29 03:06:38;;;;;;;7.43;2.60;;;;;;;8.57;52.13;100485.41;4155262;28;20054;-51
2021/11/29 03:08:41;;;;;;;6.80;2.72;;;;;;;8.58;52.25;100488.91;4154886;28;20108;-51
2021/11/29 03:10:44;;;;;;;5.63;2.63;;;;;;;8.58;52.24;100487.13;4153958;28;20338;-50
2021/11/29 03:12:46;;;;;;;;;;;;;;;8.58;52.32;100488.91;4155588;28;20046;-50
2021/11/29 03:14:48;;;;;;;5.33;2.60;;;;;;;8.50;52.41;100477.78;4155134;28;19917;-50
2021/11/29 03:16:55;;;;;;;6.63;2.67;;;;;;;8.56;52.42;100490.69;4155084;28;20269;-55
2021/11/29 03:18:57;;;;;;;6.13;2.85;;;;;;;8.54;52.23;100488.13;4155033;28;20101;-50
2021/11/29 03:20:59;;;;;;;6.72;2.50;;;;;;;8.56;52.15;100499.41;4155285;28;20368;-51
2021/11/29 03:23:01;;;;;;;7.65;2.88;;;;;;;8.48;52.47;100490.91;4154992;28;20062;-50
2021/11/29 03:25:04;;;;;;;6.30;2.75;;;;;;;8.54;52.32;100505.59;4155191;28;20330;-52
2021/11/29 03:27:07;;;;;;;5.82;2.80;;;;;;;8.56;52.33;100514.28;4155075;28;20109;-51
2021/11/29 03:29:17;;;;;;;6.32;2.88;;;;;;;8.54;51.94;100514.34;4154909;28;20060;-51
2021/11/29 03:31:21;;;;;;;5.18;2.58;;;;;;;8.56;52.22;100511.66;4155252;28;20455;-49
2021/11/29 03:33:23;;;;;;;6.18;2.90;;;;;;;8.54;52.34;100519.59;4154790;28;20108;-50
2021/11/29 03:35:25;;;;;;;7.30;2.70;;;;;;;8.53;52.25;100511.75;4155289;28;20050;-51
2021/11/29 03:37:28;;;;;;;6.07;2.63;;;;;;;8.52;52.18;100521.38;4154929;28;20144;-49
2021/11/29 03:39:30;;;;;;;5.38;2.45;;;;;;;8.55;52.25;100533.53;4155120;28;20128;-51
2021/11/29 03:41:33;;;;;;;7.25;2.67;;;;;;;8.54;52.34;100529.19;4155243;28;20050;-50
2021/11/29 03:43:35;;;;;;;6.65;2.78;;;;;;;8.54;52.43;100530.06;4154919;28;20049;-54
2021/11/29 03:45:37;;;;;;;;;;;;;;;8.53;52.18;100536.22;4155355;28;20045;-52
2021/11/29 03:47:41;;;;;;;6.50;2.90;;;;;;;8.49;52.34;100534.56;4154974;28;20251;-55
2021/11/29 03:49:43;;;;;;;6.05;2.42;;;;;;;8.37;52.32;100525.28;4154964;28;20053;-50
2021/11/29 03:51:45;;;;;;;6.45;2.55;;;;;;;8.50;52.23;100549.41;4154876;28;20105;-50
2021/11/29 03:53:47;;;;;;;6.75;2.70;;;;;;;8.45;52.25;100543.41;4154963;28;20061;-52
2021/11/29 03:55:50;;;;;;;6.20;2.70;;;;;;;8.52;52.67;100557.19;4154852;28;20073;-50
2021/11/29 03:57:52;;;;;;;5.82;2.60;;;;;;;8.51;52.10;100553.72;4154718;28;20068;-51
2021/11/29 03:59:54;;;;;;;5.90;2.55;;;;;;;8.52;52.18;100559.81;4156522;28;20046;-53
2021/11/29 04:01:56;;;;;;;5.90;2.42;;;;;;;8.51;52.34;100560.75;4158037;28;20273;-52
2021/11/29 04:03:58;;;;;;;;;;;;;;;8.50;52.34;100561.66;4158461;28;20073;-47
2021/11/29 04:06:00;;;;;;;6.28;2.53;;;;;;;8.45;52.37;100562.59;4157756;28;20095;-51
2021/11/29 04:08:06;;;;;;;5.95;3.05;;;;;;;8.49;52.36;100566.00;4157891;28;20049;-53
2021/11/29 04:10:14;;;;;;;7.47;2.97;;;;;;;8.49;52.22;100568.63;4154325;28;20103;-50
2021/11/29 04:12:16;;;;;;;5.97;2.60;;;;;;;8.49;52.27;100567.78;4157833;28;20091;-51
2021/11/29 04:14:18;;;;;;;6.47;2.45;;;;;;;8.49;52.43;100566.00;4157418;28;20062;-50
2021/11/29 04:16:21;;;;;;;4.70;2.35;;;;;;;8.45;52.31;100559.13;4157891;28;20050;-50
2021/11/29 04:18:23;;;;;;;;;;;;;;;8.47;52.24;100566.06;4158087;28;20050;-56
2021/11/29 04:20:26;;;;;;;6.45;2.53;;;;;;;8.47;52.18;100566.06;4156507;28;19918;-51
2021/11/29 04:22:28;;;;;;;5.82;2.50;;;;;;;8.40;52.22;100569.75;4157435;28;20104;-52
2021/11/29 04:24:30;;;;;;;7.30;2.30;;;;;;;8.47;52.49;100578.34;4157309;28;20152;-52
2021/11/29 04:26:32;;;;;;;5.47;2.40;;;;;;;8.47;52.38;100588.81;4157683;28;20230;-50
2021/11/29 04:28:34;;;;;;;8.00;2.90;;;;;;;8.47;52.21;100580.94;4157536;28;20331;-50
2021/11/29 04:30:37;;;;;;;;;;;;;;;8.46;52.31;100584.44;4157656;28;20069;-52
2021/11/29 04:32:40;;;;;;;5.22;2.40;;;;;;;8.45;52.38;100585.34;4157531;28;19917;-53
2021/11/29 04:34:42;;;;;;;7.90;2.25;;;;;;;8.39;52.36;100575.03;4157355;28;20284;-52
2021/11/29 04:36:45;;;;;;;5.80;2.53;;;;;;;8.45;52.15;100586.19;4157546;28;20109;-50
2021/11/29 04:38:47;;;;;;;7.00;2.70;;;;;;;8.45;52.25;100585.34;4157329;28;20113;-52
2021/11/29 04:40:49;;;;;;;5.93;2.40;;;;;;;8.38;52.20;100584.63;4157370;28;20088;-47
2021/11/29 04:42:52;;;;;;;7.15;2.45;;;;;;;8.45;52.17;100595.81;4157511;28;20228;-51
2021/11/29 04:44:54;;;;;;;4.78;2.13;;;;;;;8.39;52.23;100585.50;4157257;28;20045;-51
2021/11/29 04:46:56;;;;;;;5.20;2.30;;;;;;;8.44;52.39;100600.19;4157345;28;20105;-50
2021/11/29 04:48:58;;;;;;;;;;;;;;;8.44;52.40;100601.97;4157776;28;20065;-48
2021/11/29 04:51:00;;;;;;;5.30;2.23;;;;;;;8.32;52.17;100593.56;4156803;28;19925;-50
2021/11/29 04:53:03;;;;;;;6.45;2.42;;;;;;;8.41;52.22;100613.41;4157291;28;20113;-49
2021/11/29 04:55:06;;;;;;;6.70;2.20;;;;;;;8.43;52.24;100608.97;4157168;28;20049;-51
2021/11/29 04:57:09;;;;;;;6.65;2.50;;;;;;;8.40;52.24;100613.44;4157139;28;20421;-52
2021/11/29 04:59:11;;;;;;;4.78;2.10;;;;;;;8.26;52.25;100595.47;4156970;28;20050;-49
2021/11/29 05:01:13;;;;;;;5.00;2.10;;;;;;;8.43;52.16;100621.19;4156922;28;20050;-49
2021/11/29 05:03:15;;;;;;;5.78;2.50;;;;;;;8.43;52.23;100629.94;4157052;28;20058;-48
2021/11/29 05:05:17;;;;;;;5.85;2.05;;;;;;;8.43;52.11;100623.81;4156890;28;20062;-51
2021/11/29 05:07:20;;;;;;;;;;;;;;;8.43;52.27;100631.69;4157249;28;20046;-48
2021/11/29 05:09:22;;;;;;;4.90;2.10;;;;;;;8.36;52.42;100623.16;4157079;28;19996;-52
2021/11/29 05:11:24;;;;;;;5.05;2.00;;;;;;;8.35;52.26;100621.44;4155591;28;20046;-51
2021/11/29 05:13:27;;;;;;;5.40;2.15;;;;;;;8.42;52.48;100640.44;4156881;28;20131;-52
2021/11/29 05:15:29;;;;;;;6.63;2.17;;;;;;;8.22;52.25;100609.56;4156478;28;20062;-48
2021/11/29 05:17:32;;;;;;;4.63;2.20;;;;;;;8.41;52.28;100650.09;4156847;28;20237;-48
2021/11/29 05:19:34;;;;;;;;;;;;;;;8.40;52.56;100648.34;4157037;28;20050;-49
2021/11/29 05:21:36;;;;;;;6.18;2.30;;;;;;;8.30;52.24;100646.91;4156566;28;20288;-50
2021/11/29 05:23:39;;;;;;;4.78;2.10;;;;;;;8.19;52.40;100628.84;4156613;28;20046;-49
2021/11/29 05:25:41;;;;;;;5.47;1.98;;;;;;;8.36;52.22;100651.97;4156490;28;20049;-52
2021/11/29 05:27:43;;;;;;;6.93;2.03;;;;;;;8.26;52.22;100647.88;4156563;28;20280;-48
2021/11/29 05:29:45;;;;;;;5.85;2.10;;;;;;;8.41;52.40;100675.44;4156449;28;20425;-50
2021/11/29 05:31:47;;;;;;;5.47;2.05;;;;;;;8.40;52.22;100671.94;4156483;28;20045;-50
2021/11/29 05:33:49;;;;;;;;;;;;;;;8.40;52.37;100676.34;4156897;28;20046;-50
2021/11/29 05:35:51;;;;;;;6.53;2.60;;;;;;;8.40;52.27;100681.59;4156676;28;20194;-50
2021/11/29 05:37:53;;;;;;;5.53;2.33;;;;;;;8.35;52.59;100681.69;4156483;28;20400;-51
2021/11/29 05:39:55;;;;;;;4.55;1.80;;;;;;;8.37;52.19;100684.28;4156177;28;20061;-52
2021/11/29 05:42:17;;;;;;;6.68;2.15;;;;;;;8.27;52.33;100676.66;4156145;28;20373;-54
2021/11/29 05:44:19;;;;;;;6.18;2.17;;;;;;;8.38;52.44;100692.09;4156311;28;20073;-51
2021/11/29 05:46:22;;;;;;;6.25;1.95;;;;;;;8.38;52.18;100696.47;4156386;28;20401;-49
2021/11/29 05:48:29;;;;;;;5.55;1.92;;;;;;;8.29;52.49;100685.34;4156318;28;20050;-51
2021/11/29 05:50:31;;;;;;;6.40;2.08;;;;;;;8.38;52.15;100701.72;4156109;28;20049;-55
2021/11/29 05:52:33;;;;;;;5.32;2.10;;;;;;;8.30;52.46;100694.91;4155978;28;20100;-51
2021/11/29 05:54:36;;;;;;;5.13;1.90;;;;;;;8.38;52.17;100705.19;4156025;28;20087;-51
2021/11/29 05:56:38;;;;;;;7.65;2.15;;;;;;;8.36;52.23;100711.38;4156176;28;20056;-49
2021/11/29 05:58:40;;;;;;;5.97;1.98;;;;;;;8.38;52.18;100709.59;4156100;28;20071;-51
2021/11/29 06:00:42;;;;;;;4.80;1.85;;;;;;;8.31;52.46;100703.63;4156122;28;20105;-48
2021/11/29 06:02:44;;;;;;;;;;;;;;;8.37;52.38;100713.97;4156234;28;20097;-48
2021/11/29 06:04:47;;;;;;;5.30;2.20;;;;;;;8.36;52.65;100712.25;4156112;28;19923;-49
2021/11/29 06:06:49;;;;;;;5.22;1.90;;;;;;;8.36;52.21;100714.00;4156005;28;20113;-50
2021/11/29 06:08:51;;;;;;;5.28;2.10;;;;;;;8.36;52.49;100720.13;4155849;28;20117;-49
2021/11/29 06:10:53;;;;;;;4.55;2.05;;;;;;;8.36;52.31;100730.59;4156017;28;20074;-49
2021/11/29 06:12:55;;;;;;;;;;;;;;;8.36;52.29;100733.22;4156129;28;20046;-50
2021/11/29 06:14:57;;;;;;;5.45;1.83;;;;;;;8.35;52.36;100741.09;4155832;28;19918;-51
2021/11/29 06:16:59;;;;;;;;;;;;;;;8.34;52.29;100744.63;4156450;28;20318;-52
2021/11/29 06:19:03;;;;;;;6.25;2.53;;;;;;;8.34;52.33;100749.88;4155856;28;19922;-51
2021/11/29 06:21:05;;;;;;;4.78;2.08;;;;;;;8.33;52.48;100749.00;4155981;28;20368;-52
2021/11/29 06:23:07;;;;;;;6.70;1.90;;;;;;;8.35;52.26;100756.81;4155580;28;20121;-50
2021/11/29 06:25:09;;;;;;;;;;;;;;;8.34;52.49;100753.34;4145367;28;20079;-49
2021/11/29 06:27:12;;;;;;;5.07;1.80;;;;;;;8.33;52.49;100756.88;4155974;28;20040;-51
2021/11/29 06:29:14;;;;;;;4.60;1.75;;;;;;;8.33;52.49;100762.09;4155698;28;20108;-50
2021/11/29 06:31:17;;;;;;;5.22;2.17;;;;;;;8.33;52.38;100764.72;4155547;28;20046;-50
2021/11/29 06:33:19;;;;;;;5.15;1.77;;;;;;;8.33;52.40;100772.59;4155596;28;20073;-52
2021/11/29 06:35:21;;;;;;;4.88;1.80;;;;;;;8.19;52.31;100754.59;4155760;28;20265;-52
2021/11/29 06:37:26;;;;;;;4.93;2.08;;;;;;;8.33;52.42;100783.06;4155625;28;20045;-51
2021/11/29 06:39:30;;;;;;;5.20;2.03;;;;;;;8.32;52.21;100792.72;4155462;28;20107;-51
2021/11/29 06:41:32;;;;;;;5.68;1.90;;;;;;;8.32;52.54;100789.22;4155470;28;20052;-51
2021/11/29 06:43:34;;;;;;;;;;;;;;;8.32;52.42;100797.06;4155995;28;20049;-54
2021/11/29 06:45:36;;;;;;;6.07;1.90;;;;;;;8.28;52.37;100798.91;4155633;28;20023;-47
2021/11/29 06:47:42;;;;;;;4.38;1.92;;;;;;;8.31;52.18;100809.31;4155749;28;20050;-48
2021/11/29 06:49:44;;;;;;;4.78;1.75;;;;;;;8.28;52.46;100800.66;4155743;28;20233;-50
2021/11/29 06:51:46;;;;;;;;;;;;;;;8.31;52.14;100811.06;4155931;28;20057;-49
2021/11/29 06:53:48;;;;;;;5.75;1.83;;;;;;;8.29;52.46;100802.41;4155306;28;19989;-49
2021/11/29 06:55:54;;;;;;;5.22;1.80;;;;;;;8.28;52.33;100805.91;4155539;28;20148;-51
2021/11/29 06:57:56;;;;;;;5.18;2.00;;;;;;;8.31;52.42;100818.91;4155429;28;20064;-49
2021/11/29 06:59:58;;;;;;;4.35;1.80;;;;;;;8.28;52.26;100822.47;4155137;28;20096;-50
2021/11/29 07:02:03;;;;;;;4.45;1.90;;;;;;;8.31;52.49;100829.41;4155245;28;20095;-47
2021/11/29 07:04:06;;;;;;;5.10;2.00;;;;;;;8.30;52.45;100833.78;4154054;28;20117;-49
2021/11/29 07:06:08;;;;;;;5.38;1.90;;;;;;;8.30;52.46;100839.03;4155398;28;20364;-51
2021/11/29 07:08:11;;;;;;;4.38;1.80;;;;;;;8.22;52.40;100829.66;4155470;28;20111;-54
2021/11/29 07:10:13;;;;;;;;;;;;;;;8.30;52.21;100853.91;4155673;28;20066;-48
2021/11/29 07:12:19;;;;;;;4.97;1.70;;;;;;;8.17;52.35;100834.16;4155249;28;19918;-51
2021/11/29 07:14:21;;;;;;;4.80;1.63;;;;;;;8.30;52.20;100856.53;4155134;28;20061;-50
2021/11/29 07:16:23;;;;;;;5.38;1.88;;;;;;;8.30;52.24;100864.41;4155289;28;20344;-52
2021/11/29 07:18:25;;;;;;;;;;;;;;;8.29;52.38;100866.13;4155924;28;20049;-49
2021/11/29 07:20:27;;;;;;;3.75;1.50;;;;;;;8.28;52.42;100863.56;4155025;28;20109;-50
2021/11/29 07:22:29;;;;;;;;;;;;;;;8.28;52.45;100874.03;4155722;28;20096;-50
2021/11/29 07:24:33;;;;;;;4.78;1.80;;;;;;;8.27;52.45;100881.03;4155474;28;20097;-50
2021/11/29 07:26:40;;;;;;;6.97;1.98;;;;;;;8.29;52.35;100888.88;4154884;28;20049;-49
2021/11/29 07:28:42;;;;;;;4.13;1.88;;;;;;;8.24;52.51;100883.72;4155433;28;20327;-49
2021/11/29 07:30:44;;;;;;;4.70;1.80;;;;;;;8.28;52.28;100897.63;4155120;28;20480;-50
2021/11/29 07:32:47;;;;;;;4.72;1.90;;;;;;;8.28;52.26;100893.22;4155253;28;20050;-48
2021/11/29 07:34:49;;;;;;;4.20;1.90;;;;;;;8.26;52.32;100896.78;4156468;28;20109;-50
2021/11/29 07:36:52;;;;;;;4.28;1.80;;;;;;;8.29;52.20;100896.72;4158241;28;20049;-51
2021/11/29 07:38:54;;;;;;;5.15;2.20;;;;;;;8.28;52.13;100895.00;4158434;28;20123;-48
2021/11/29 07:40:56;;;;;;;5.35;2.00;;;;;;;8.12;52.41;100868.31;4158264;28;20108;-48
2021/11/29 07:43:02;;;;;;;4.53;2.00;;;;;;;8.27;52.21;100898.50;4158408;28;20128;-50
2021/11/29 07:45:07;;;;;;;5.35;1.77;;;;;;;8.20;52.17;100878.59;4158171;28;20241;-49
2021/11/29 07:47:09;;;;;;;4.85;1.88;;;;;;;8.28;52.52;100895.00;4158088;28;20110;-47
2021/11/29 07:49:11;;;;;;;4.93;2.08;;;;;;;8.25;52.42;100889.81;4158202;28;20396;-51
2021/11/29 07:51:13;;;;;;;5.82;1.98;;;;;;;8.18;52.44;100883.00;4158114;28;20072;-52
2021/11/29 07:53:15;;;;;;;;;;;;;;;8.28;52.46;100905.47;4158618;28;20101;-52
2021/11/29 07:55:22;;;;;;;4.75;1.90;;;;;;;8.28;52.18;100902.88;4158193;28;19940;-50
2021/11/29 07:57:24;;;;;;;6.03;1.90;;;;;;;8.26;52.34;100912.50;4157938;28;20152;-50
2021/11/29 07:59:26;;;;;;;4.47;2.00;;;;;;;8.22;52.42;100913.50;4158045;28;20109;-52
2021/11/29 08:01:48;;;;;;;5.97;2.22;;;;;;;8.29;52.50;100915.06;4157849;28;20091;-50
2021/11/29 08:03:50;;;;;;;;;;;;;;;8.28;52.51;100919.44;4158286;28;20056;-51
2021/11/29 08:05:52;;;;;;;5.07;2.45;;;;;;;8.28;52.18;100921.22;4157922;28;19989;-53
2021/11/29 08:07:55;;;;;;;5.15;2.10;;;;;;;8.18;52.23;100910.06;4157570;28;20160;-48
2021/11/29 08:09:57;;;;;;;5.38;2.03;;;;;;;8.29;52.46;100931.66;4141767;28;20323;-55
2021/11/29 08:11:59;;;;;;;;;;;;;;;8.29;52.22;100928.19;4149034;28;20341;-48
2021/11/29 08:14:01;;;;;;;5.10;2.20;;;;;;;8.30;52.36;100937.75;4157692;28;19963;-51
2021/11/29 08:16:04;;;;;;;5.10;1.92;;;;;;;8.30;52.23;100940.38;4157997;28;20364;-48
2021/11/29 08:18:09;;;;;;;6.63;2.50;;;;;;;8.31;52.39;100947.31;4157502;28;20046;-51
2021/11/29 08:20:13;;;;;;;5.45;2.00;;;;;;;8.26;52.17;100947.44;4157856;28;20052;-50
2021/11/29 08:22:15;;;;;;;6.15;2.42;;;;;;;8.31;52.33;100949.94;4157387;28;20050;-50
2021/11/29 08:24:17;;;;;;;5.85;2.10;;;;;;;8.30;52.26;100959.56;4157799;28;20046;-47
2021/11/29 08:26:19;;;;;;;6.07;2.50;;;;;;;8.28;52.54;100963.13;4157780;28;20390;-50
2021/11/29 08:28:21;;;;;;;7.22;2.22;;;;;;;8.31;52.72;100957.81;4157480;28;20054;-50
2021/11/29 08:30:24;;;;;;;;;;;;;;;8.32;52.71;100967.41;4157878;28;20050;-50
2021/11/29 08:32:27;;;;;;;6.15;2.42;;;;;;;8.31;52.66;100966.53;4157228;28;19996;-50
2021/11/29 08:34:29;;;;;;;;;;;;;;;8.31;52.71;100961.31;4147347;28;20050;-50
2021/11/29 08:36:33;;;;;;;4.97;2.35;;;;;;;8.27;52.69;100957.00;4157694;28;19980;-52
2021/11/29 08:38:35;;;;;;;5.45;2.55;;;;;;;8.25;52.71;100963.19;4157083;28;20107;-52
2021/11/29 08:40:38;;;;;;;6.57;2.60;;;;;;;8.32;52.81;100977.88;4157381;28;20338;-50
2021/11/29 08:42:40;;;;;;;7.35;2.38;;;;;;;8.32;52.41;100984.00;4157323;28;20046;-55
2021/11/29 08:44:43;;;;;;;6.10;2.55;;;;;;;8.29;52.53;100970.09;4157405;28;20385;-51
2021/11/29 08:46:48;;;;;;;6.35;2.38;;;;;;;8.33;52.44;100976.97;4157497;28;20057;-51
2021/11/29 08:48:51;;;;;;;6.25;2.40;;;;;;;8.34;52.66;100990.97;4157139;28;20259;-49
2021/11/29 08:50:55;;;;;;;5.13;2.50;;;;;;;8.34;52.48;100986.56;4157229;28;20139;-49
2021/11/29 08:52:59;;;;;;;8.13;2.60;;;;;;;8.34;52.58;100983.97;4157001;28;20148;-50
2021/11/29 08:55:04;;;;;;;6.75;2.83;;;;;;;8.36;52.50;100978.69;4157001;28;20066;-50
2021/11/29 08:57:09;;;;;;;6.97;2.90;;;;;;;8.36;52.37;100979.56;4157030;28;20145;-53
2021/11/29 08:59:11;;;;;;;6.20;2.65;;;;;;;8.36;52.69;100984.78;4156969;28;20113;-46
2021/11/29 09:01:13;;;;;;;7.25;3.05;;;;;;;8.37;52.31;100985.66;4157158;28;20065;-48
2021/11/29 09:03:16;;;;;;;8.20;2.40;;;;;;;8.39;52.63;100994.34;4157006;28;20052;-51
2021/11/29 09:05:18;;;;;;;6.72;2.92;;;;;;;8.35;52.56;100984.81;4156846;28;20324;-48
2021/11/29 09:07:20;;;;;;;7.72;2.90;;;;;;;8.39;52.27;100989.09;4157114;28;20107;-47
2021/11/29 09:09:23;;;;;;;6.55;2.85;;;;;;;8.39;52.39;101000.44;4156672;28;20249;-49
2021/11/29 09:11:25;;;;;;;6.93;2.53;;;;;;;8.34;52.52;100988.34;4156609;28;20099;-57
2021/11/29 09:13:31;;;;;;;6.57;2.67;;;;;;;8.37;52.49;100993.50;4156659;28;20127;-50
2021/11/29 09:15:34;;;;;;;6.43;2.90;;;;;;;8.40;52.23;100999.53;4156453;28;20057;-50
2021/11/29 09:17:37;;;;;;;6.18;2.40;;;;;;;8.41;52.25;101003.91;4156764;28;20326;-51
2021/11/29 09:19:39;;;;;;;5.68;2.67;;;;;;;8.41;52.44;101009.13;4156537;28;20046;-52
2021/11/29 09:21:41;;;;;;;6.57;2.80;;;;;;;8.25;52.36;100984.16;4156557;28;20101;-55
2021/11/29 09:23:45;;;;;;;5.80;2.60;;;;;;;8.34;52.25;101004.91;4156719;28;20392;-54
2021/11/29 09:25:47;;;;;;;6.85;2.88;;;;;;;8.36;52.26;101008.38;4155785;28;20056;-51
2021/11/29 09:27:50;;;;;;;6.03;2.60;;;;;;;8.40;52.34;101011.81;4155813;28;20237;-55
2021/11/29 09:29:52;;;;;;;6.38;2.90;;;;;;;8.39;52.36;101013.53;4156391;28;20238;-51
2021/11/29 09:31:56;;;;;;;6.15;2.65;;;;;;;8.21;52.14;100985.97;4156443;28;20050;-52
2021/11/29 09:33:58;;;;;;;5.97;2.80;;;;;;;8.38;52.09;101009.19;4156557;28;20050;-52
2021/11/29 09:36:00;;;;;;;6.20;2.97;;;;;;;8.42;52.37;101026.59;4156360;28;20045;-50
2021/11/29 09:38:03;;;;;;;7.53;3.03;;;;;;;8.35;52.21;101011.00;4156692;28;20105;-51
2021/11/29 09:40:09;;;;;;;8.77;3.08;;;;;;;8.43;52.24;101032.69;4156380;28;20313;-50
2021/11/29 09:42:11;;;;;;;5.65;2.80;;;;;;;8.42;52.49;101038.81;4156463;28;20052;-51
2021/11/29 09:44:13;;;;;;;6.65;3.00;;;;;;;8.39;52.66;101029.25;4156446;28;20081;-48